Time;durP1;ratioP1;P1;durP2;ratioP2;P2;SDS_P1;SDS_P2;PMS_P1;PMS_P2;Temp;Humidity;BMP_temperature;BMP_pressure;BME280_temperature;BME280_humidity;BME280_pressure;Samples;Min_cycle;Max_cycle;Signal;HPM_P1;HPM_P2
2021/10/14 00:01:29;;;;;;;10.63;6.77;;;10.50;99.90;;;;;;5148614;27;20536;-48
2021/10/14 00:03:59;;;;;;;8.50;5.57;;;10.60;99.90;;;;;;5138929;27;20540;-57
2021/10/14 00:06:26;;;;;;;9.43;6.17;;;10.50;99.90;;;;;;5138329;27;20511;-53
2021/10/14 00:08:57;;;;;;;8.57;6.40;;;10.50;99.90;;;;;;5138879;27;20541;-48
2021/10/14 00:11:25;;;;;;;8.80;5.77;;;10.50;99.90;;;;;;5139366;27;20444;-54
2021/10/14 00:13:52;;;;;;;6.40;5.37;;;10.50;99.90;;;;;;5139541;27;20503;-54
2021/10/14 00:16:19;;;;;;;6.63;5.83;;;10.50;99.90;;;;;;5139061;27;20486;-56
2021/10/14 00:18:48;;;;;;;7.33;6.40;;;10.50;99.90;;;;;;5139232;27;20482;-49
2021/10/14 00:21:15;;;;;;;7.50;6.00;;;10.50;99.90;;;;;;5139086;27;20486;-53
2021/10/14 00:23:42;;;;;;;7.40;6.40;;;10.50;99.90;;;;;;5139451;27;20482;-48
2021/10/14 00:26:10;;;;;;;12.80;6.20;;;10.50;99.90;;;;;;5138530;27;20523;-55
2021/10/14 00:28:37;;;;;;;9.00;6.50;;;10.50;99.90;;;;;;5156577;27;20493;-51
2021/10/14 00:31:04;;;;;;;8.53;5.87;;;10.50;99.90;;;;;;5160047;27;20449;-53
2021/10/14 00:33:31;;;;;;;12.13;6.80;;;10.50;99.90;;;;;;5159850;27;20460;-52
2021/10/14 00:35:58;;;;;;;8.13;6.03;;;10.40;99.90;;;;;;5159652;27;20558;-53
2021/10/14 00:38:25;;;;;;;11.83;6.40;;;10.50;99.90;;;;;;5159186;27;20947;-56
2021/10/14 00:40:56;;;;;;;7.77;6.90;;;10.50;99.90;;;;;;5159196;27;20493;-53
2021/10/14 00:43:28;;;;;;;12.40;7.20;;;10.50;99.90;;;;;;5141969;27;20451;-57
2021/10/14 00:45:57;;;;;;;8.63;6.80;;;10.50;99.90;;;;;;5138717;27;20490;-51
2021/10/14 00:48:24;;;;;;;12.33;7.67;;;10.50;99.90;;;;;;5138415;27;20527;-51
2021/10/14 00:50:51;;;;;;;8.63;7.50;;;10.50;99.90;;;;;;5138240;27;20524;-55
2021/10/14 00:53:18;;;;;;;13.83;7.10;;;10.50;99.90;;;;;;5137946;27;20819;-57
2021/10/14 00:55:45;;;;;;;7.73;6.93;;;10.50;99.90;;;;;;5137558;27;20816;-58
2021/10/14 00:58:14;;;;;;;9.10;6.83;;;10.50;99.90;;;;;;5137690;27;20482;-54
2021/10/14 01:00:43;;;;;;;11.50;7.60;;;10.40;99.90;;;;;;5138411;27;20489;-55
2021/10/14 01:03:09;;;;;;;9.33;7.20;;;10.40;99.90;;;;;;5137112;27;20494;-55
2021/10/14 01:05:36;;;;;;;13.17;8.80;;;10.40;99.90;;;;;;5137393;27;20497;-55
2021/10/14 01:08:04;;;;;;;13.63;9.40;;;10.40;99.90;;;;;;5137834;27;20455;-55
2021/10/14 01:10:35;;;;;;;14.13;9.60;;;10.40;99.90;;;;;;5137485;27;20480;-51
2021/10/14 01:13:03;;;;;;;14.47;11.30;;;10.30;99.90;;;;;;5137870;27;20548;-55
2021/10/14 01:15:30;;;;;;;12.23;10.00;;;10.40;99.90;;;;;;5137720;27;20581;-55
2021/10/14 01:17:58;;;;;;;15.37;10.80;;;10.40;99.90;;;;;;5137676;27;20506;-49
2021/10/14 01:20:29;;;;;;;11.07;9.60;;;10.40;99.90;;;;;;5137825;27;20873;-54
2021/10/14 01:22:57;;;;;;;16.43;11.30;;;10.40;99.90;;;;;;5137742;27;20551;-54
2021/10/14 01:25:24;;;;;;;14.93;8.80;;;10.40;99.90;;;;;;5138056;27;20450;-53
2021/10/14 01:27:52;;;;;;;11.33;9.50;;;10.40;99.90;;;;;;5149496;27;20485;-55
2021/10/14 01:30:19;;;;;;;16.57;10.63;;;10.40;99.90;;;;;;5158337;27;20497;-49
2021/10/14 01:32:49;;;;;;;14.13;9.33;;;10.30;99.90;;;;;;5158447;27;20899;-55
2021/10/14 01:35:16;;;;;;;14.93;9.70;;;10.40;99.90;;;;;;5158349;27;20518;-52
2021/10/14 01:37:45;;;;;;;15.30;9.63;;;10.40;99.90;;;;;;5158573;27;20840;-54
2021/10/14 01:40:13;;;;;;;12.10;10.03;;;10.40;99.90;;;;;;5157754;27;20461;-58
2021/10/14 01:42:40;;;;;;;15.33;9.70;;;10.40;99.90;;;;;;5158094;27;20493;-56
2021/10/14 01:45:08;;;;;;;11.47;8.20;;;10.40;99.90;;;;;;5158110;27;20432;-49
2021/10/14 01:47:36;;;;;;;10.47;7.77;;;10.30;99.90;;;;;;5157690;27;20478;-50
2021/10/14 01:50:04;;;;;;;14.23;10.20;;;10.40;99.90;;;;;;5158372;27;20489;-56
2021/10/14 01:52:31;;;;;;;15.90;8.47;;;10.30;99.90;;;;;;5157933;27;20457;-58
2021/10/14 01:54:59;;;;;;;13.40;8.00;;;10.40;99.90;;;;;;5158334;27;20776;-57
2021/10/14 01:57:26;;;;;;;11.33;7.83;;;10.40;97.40;;;;;;5158153;27;20505;-53
2021/10/14 01:59:55;;;;;;;12.17;7.33;;;10.40;94.80;;;;;;5158221;27;20500;-55
2021/10/14 02:02:22;;;;;;;14.00;8.03;;;10.30;99.90;;;;;;5135554;27;20459;-58
2021/10/14 02:04:49;;;;;;;12.07;8.00;;;10.40;99.90;;;;;;5116535;28;20487;-54
2021/10/14 02:07:16;;;;;;;13.80;7.17;;;10.30;99.90;;;;;;5116343;28;20470;-53
2021/10/14 02:09:43;;;;;;;15.93;7.40;;;10.30;99.90;;;;;;5116708;28;20533;-51
2021/10/14 02:12:13;;;;;;;14.17;7.73;;;10.30;99.90;;;;;;5116536;28;20495;-52
2021/10/14 02:14:40;;;;;;;14.50;7.70;;;10.30;99.90;;;;;;5116736;28;20519;-53
2021/10/14 02:17:07;;;;;;;13.53;8.70;;;10.30;99.90;;;;;;5117016;28;20535;-54
2021/10/14 02:19:34;;;;;;;12.90;8.20;;;10.30;99.90;;;;;;5116723;28;20525;-56
2021/10/14 02:22:39;;;;;;;10.30;8.23;;;10.30;99.90;;;;;;5116839;28;20865;-54
2021/10/14 02:25:07;;;;;;;12.90;8.30;;;10.30;99.90;;;;;;5116812;28;20455;-53
2021/10/14 02:27:35;;;;;;;13.30;8.20;;;10.20;99.90;;;;;;5124958;28;20462;-57
2021/10/14 02:30:04;;;;;;;12.70;9.30;;;10.10;99.90;;;;;;5137891;27;20482;-57
2021/10/14 02:32:32;;;;;;;14.57;8.90;;;10.10;99.90;;;;;;5141101;27;20436;-58
2021/10/14 02:34:58;;;;;;;17.60;9.23;;;10.00;99.90;;;;;;5140970;27;20518;-55
2021/10/14 02:37:26;;;;;;;13.37;9.90;;;10.00;1.00;;;;;;5141365;27;20433;-57
2021/10/14 02:39:54;;;;;;;22.33;10.90;;;10.00;99.90;;;;;;5141464;27;20519;-56
2021/10/14 02:42:21;;;;;;;13.80;11.20;;;9.90;21.50;;;;;;5140717;27;20433;-59
2021/10/14 02:44:49;;;;;;;18.23;10.93;;;9.90;1.00;;;;;;5140713;27;20428;-58
2021/10/14 02:47:18;;;;;;;16.10;11.50;;;9.70;1.00;;;;;;5140970;27;20462;-58
2021/10/14 02:49:45;;;;;;;16.77;12.90;;;9.70;81.20;;;;;;5141467;27;20490;-57
2021/10/14 02:52:12;;;;;;;21.10;12.90;;;9.60;99.90;;;;;;5140741;27;20820;-57
2021/10/14 02:54:39;;;;;;;19.93;13.70;;;9.60;99.90;;;;;;5140613;27;20525;-54
2021/10/14 02:57:06;;;;;;;18.00;15.67;;;9.50;99.90;;;;;;5140848;27;20888;-60
2021/10/14 02:59:33;;;;;;;16.10;13.50;;;9.50;99.90;;;;;;5140825;27;20809;-61
2021/10/14 03:02:02;;;;;;;17.20;14.33;;;9.40;99.90;;;;;;5124802;27;20437;-58
2021/10/14 03:04:29;;;;;;;18.67;14.93;;;9.50;99.90;;;;;;5119740;28;20460;-59
2021/10/14 03:06:56;;;;;;;17.63;13.77;;;9.40;99.90;;;;;;5119775;28;20434;-57
2021/10/14 03:09:23;;;;;;;17.47;13.00;;;9.40;99.90;;;;;;5120005;28;20466;-57
2021/10/14 03:11:53;;;;;;;16.30;12.60;;;9.30;99.90;;;;;;5120070;28;20727;-59
2021/10/14 03:14:22;;;;;;;15.93;12.47;;;9.30;99.90;;;;;;5120194;28;20491;-60
2021/10/14 03:16:49;;;;;;;13.80;12.00;;;9.20;99.90;;;;;;5119567;28;20517;-58
2021/10/14 03:19:18;;;;;;;16.30;13.33;;;9.20;99.90;;;;;;5119833;28;20459;-57
2021/10/14 03:21:45;;;;;;;17.40;13.70;;;9.20;99.90;;;;;;5119737;28;20754;-59
2021/10/14 03:24:12;;;;;;;18.60;14.80;;;9.20;99.90;;;;;;5119481;28;20438;-60
2021/10/14 03:26:39;;;;;;;19.50;14.77;;;9.30;99.90;;;;;;5120046;27;20467;-59
2021/10/14 03:29:11;;;;;;;21.77;15.10;;;9.20;99.90;;;;;;5140191;27;20482;-60
2021/10/14 03:31:38;;;;;;;18.93;15.30;;;9.30;99.90;;;;;;5140121;27;20515;-60
2021/10/14 03:34:08;;;;;;;19.03;15.53;;;9.30;99.90;;;;;;5139726;27;20486;-61
2021/10/14 03:36:38;;;;;;;26.13;15.60;;;9.30;99.90;;;;;;5139827;27;20541;-61
2021/10/14 03:39:06;;;;;;;21.50;15.37;;;9.30;99.90;;;;;;5139976;27;20925;-61
2021/10/14 03:41:34;;;;;;;17.77;14.17;;;9.30;99.90;;;;;;5139884;27;20580;-61
2021/10/14 03:44:01;;;;;;;21.57;16.17;;;9.30;99.90;;;;;;5139952;27;20433;-61
2021/10/14 03:46:28;;;;;;;22.83;17.13;;;9.40;99.90;;;;;;5139778;27;20438;-60
2021/10/14 03:48:55;;;;;;;21.50;16.20;;;9.40;99.90;;;;;;5139825;27;20458;-61
2021/10/14 03:51:25;;;;;;;20.50;17.03;;;9.40;99.90;;;;;;5139749;27;20776;-61
2021/10/14 03:53:53;;;;;;;21.57;17.20;;;9.40;99.90;;;;;;5139837;27;20454;-61
2021/10/14 03:56:21;;;;;;;18.20;16.30;;;9.40;99.90;;;;;;5139346;27;20500;-61
2021/10/14 03:58:48;;;;;;;20.27;16.73;;;9.40;99.90;;;;;;5139435;27;20462;-60
2021/10/14 04:01:16;;;;;;;23.20;16.60;;;9.50;99.90;;;;;;5129996;27;20488;-61
2021/10/14 04:03:43;;;;;;;19.73;17.20;;;9.50;99.90;;;;;;5118448;28;20487;-61
2021/10/14 04:06:12;;;;;;;22.53;17.60;;;9.50;99.90;;;;;;5118655;28;20772;-61
2021/10/14 04:08:39;;;;;;;20.20;17.37;;;9.50;99.90;;;;;;5118782;28;21026;-61
2021/10/14 04:11:07;;;;;;;31.50;20.00;;;9.50;99.90;;;;;;5118850;28;20499;-61
2021/10/14 04:13:34;;;;;;;26.40;19.63;;;9.50;99.90;;;;;;5118553;28;20484;-61
2021/10/14 04:16:01;;;;;;;25.20;20.20;;;9.50;99.90;;;;;;5118671;28;20553;-61
2021/10/14 04:18:28;;;;;;;23.40;20.80;;;9.60;99.90;;;;;;5118323;28;20438;-61
2021/10/14 04:20:55;;;;;;;27.40;22.43;;;9.60;99.90;;;;;;5118506;28;20752;-62
2021/10/14 04:23:23;;;;;;;28.57;21.40;;;9.60;99.90;;;;;;5118440;28;20430;-62
2021/10/14 04:25:50;;;;;;;32.23;24.00;;;9.60;99.90;;;;;;5118620;28;20495;-62
2021/10/14 04:28:18;;;;;;;31.13;22.63;;;9.60;99.90;;;;;;5133240;27;20822;-62
2021/10/14 04:30:49;;;;;;;28.80;24.57;;;9.60;99.90;;;;;;5138821;27;20468;-62
2021/10/14 04:33:16;;;;;;;33.40;24.27;;;9.60;99.90;;;;;;5139139;27;20483;-62
2021/10/14 04:35:43;;;;;;;30.47;24.70;;;9.50;99.90;;;;;;5138900;27;20461;-62
2021/10/14 04:38:10;;;;;;;37.83;27.60;;;9.50;99.90;;;;;;5138625;27;20518;-62
2021/10/14 04:40:37;;;;;;;30.20;24.70;;;9.50;99.90;;;;;;5138946;27;20463;-62
2021/10/14 04:43:04;;;;;;;33.77;25.40;;;9.60;99.90;;;;;;5138918;27;20462;-62
2021/10/14 04:45:33;;;;;;;34.67;24.97;;;9.60;99.90;;;;;;5138035;27;20472;-62
2021/10/14 04:47:59;;;;;;;29.97;23.13;;;9.60;99.90;;;;;;5138511;27;20464;-62
2021/10/14 04:50:27;;;;;;;32.97;23.90;;;9.60;99.90;;;;;;5137672;27;20743;-62
2021/10/14 04:52:54;;;;;;;31.40;24.17;;;9.50;99.90;;;;;;5137758;27;20990;-62
2021/10/14 04:55:21;;;;;;;30.60;24.27;;;9.60;99.90;;;;;;5138402;27;20465;-62
2021/10/14 04:57:48;;;;;;;36.47;25.70;;;9.50;99.90;;;;;;5138396;27;20536;-62
2021/10/14 05:00:18;;;;;;;38.17;24.97;;;9.60;99.90;;;;;;5137055;27;20462;-62
2021/10/14 05:02:46;;;;;;;38.60;26.23;;;9.50;99.90;;;;;;5116215;28;20462;-62
2021/10/14 05:05:13;;;;;;;35.00;26.80;;;9.50;99.90;;;;;;5117380;28;20456;-62
2021/10/14 05:07:40;;;;;;;35.53;26.00;;;9.50;99.90;;;;;;5117673;28;20463;-62
2021/10/14 05:10:08;;;;;;;37.90;28.33;;;9.60;99.90;;;;;;5117144;28;20532;-62
2021/10/14 05:12:35;;;;;;;37.93;27.40;;;9.50;99.90;;;;;;5117125;28;20468;-62
2021/10/14 05:15:06;;;;;;;36.10;28.57;;;9.50;99.90;;;;;;5117043;28;20491;-62
2021/10/14 05:17:33;;;;;;;41.73;28.40;;;9.50;99.90;;;;;;5117533;28;20554;-62
2021/10/14 05:20:03;;;;;;;44.10;31.10;;;9.50;99.90;;;;;;5117657;28;20463;-62
2021/10/14 05:22:33;;;;;;;37.87;29.17;;;9.60;99.90;;;;;;5116965;28;20434;-62
2021/10/14 05:25:00;;;;;;;35.63;26.87;;;9.60;99.90;;;;;;5116893;28;20770;-62
2021/10/14 05:27:30;;;;;;;50.60;29.97;;;9.50;99.90;;;;;;5124533;27;20441;-62
2021/10/14 05:29:57;;;;;;;43.53;30.63;;;9.50;99.90;;;;;;5138054;27;20482;-62
2021/10/14 05:32:24;;;;;;;41.27;30.13;;;9.50;99.90;;;;;;5137574;27;20465;-62
2021/10/14 05:34:51;;;;;;;43.20;29.73;;;9.50;99.90;;;;;;5137475;27;20531;-62
2021/10/14 05:37:19;;;;;;;39.47;28.67;;;9.50;99.90;;;;;;5137299;27;20940;-62
2021/10/14 05:39:46;;;;;;;40.87;29.30;;;9.50;99.90;;;;;;5137125;27;20868;-62
2021/10/14 05:42:13;;;;;;;43.23;31.00;;;9.50;99.90;;;;;;5137175;27;20516;-62
2021/10/14 05:44:40;;;;;;;40.80;28.33;;;9.50;99.90;;;;;;5136151;27;20501;-63
2021/10/14 05:47:16;;;;;;;48.27;30.20;;;9.40;99.90;;;;;;5136528;27;20478;-62
2021/10/14 05:49:43;;;;;;;40.73;28.87;;;9.40;99.90;;;;;;5137181;27;20461;-62
2021/10/14 05:52:13;;;;;;;44.30;30.93;;;9.50;99.90;;;;;;5136524;27;20488;-62
2021/10/14 05:54:44;;;;;;;47.83;32.53;;;9.50;99.90;;;;;;5136926;27;20458;-62
2021/10/14 05:57:11;;;;;;;48.70;30.67;;;9.60;99.90;;;;;;5137349;27;20492;-62
2021/10/14 05:59:38;;;;;;;52.43;33.87;;;9.50;99.90;;;;;;5137632;28;20807;-62
2021/10/14 06:02:09;;;;;;;58.50;34.83;;;9.60;99.90;;;;;;5137269;27;20519;-62
2021/10/14 06:04:36;;;;;;;51.80;34.83;;;9.50;99.90;;;;;;5137372;27;20463;-62
2021/10/14 06:07:04;;;;;;;47.60;32.70;;;9.50;99.90;;;;;;5141750;27;20516;-62
2021/10/14 06:09:53;;;;;;;45.50;31.37;;;9.50;99.90;;;;;;5141776;27;20458;-62
2021/10/14 06:12:22;;;;;;;51.60;30.17;;;9.50;99.90;;;;;;5141250;27;20493;-62
2021/10/14 06:14:49;;;;;;;46.83;32.57;;;9.50;99.90;;;;;;5141403;27;20571;-62
2021/10/14 06:17:16;;;;;;;45.83;31.97;;;9.50;99.90;;;;;;5141486;27;20526;-62
2021/10/14 06:19:42;;;;;;;49.50;33.10;;;9.60;99.90;;;;;;5141567;27;20482;-62
2021/10/14 06:22:10;;;;;;;48.13;33.77;;;9.60;99.90;;;;;;5141469;27;20549;-62
2021/10/14 06:24:36;;;;;;;52.87;36.00;;;9.60;99.90;;;;;;5141127;27;20511;-62
2021/10/14 06:27:03;;;;;;;46.63;32.10;;;9.60;99.90;;;;;;5141524;27;20807;-62
2021/10/14 06:29:32;;;;;;;49.47;32.00;;;9.60;99.90;;;;;;5141531;27;20489;-62
2021/10/14 06:31:59;;;;;;;51.27;32.77;;;9.70;99.90;;;;;;5141359;27;20437;-62
2021/10/14 06:34:27;;;;;;;45.70;30.07;;;9.70;99.90;;;;;;5140959;27;20464;-62
2021/10/14 06:36:54;;;;;;;54.37;36.17;;;9.60;99.90;;;;;;5141320;27;20525;-62
2021/10/14 06:39:21;;;;;;;56.80;35.23;;;9.70;99.90;;;;;;5141485;27;20462;-63
2021/10/14 06:41:48;;;;;;;61.13;34.17;;;9.70;99.90;;;;;;5141257;27;20503;-62
2021/10/14 06:44:15;;;;;;;56.70;34.57;;;9.70;99.90;;;;;;5141468;27;20453;-62
2021/10/14 06:46:43;;;;;;;53.60;33.70;;;9.70;99.90;;;;;;5140603;27;20459;-62
2021/10/14 06:49:10;;;;;;;56.93;34.60;;;9.70;99.90;;;;;;5141113;27;20897;-62
2021/10/14 06:51:44;;;;;;;53.33;34.93;;;9.70;99.90;;;;;;5141077;27;20463;-62
2021/10/14 06:54:15;;;;;;;61.23;35.47;;;9.80;99.90;;;;;;5140670;27;20439;-63
2021/10/14 06:56:44;;;;;;;52.77;33.10;;;9.80;99.90;;;;;;5140459;27;20493;-63
2021/10/14 06:59:12;;;;;;;52.27;34.07;;;9.80;99.90;;;;;;5140933;27;20476;-63
2021/10/14 07:01:39;;;;;;;47.13;31.60;;;9.80;99.90;;;;;;5140794;27;20458;-63
2021/10/14 07:04:07;;;;;;;44.60;30.50;;;9.70;99.90;;;;;;5140065;27;20864;-63
2021/10/14 07:06:34;;;;;;;45.63;30.40;;;9.70;99.90;;;;;;5140848;27;20698;-63
2021/10/14 07:09:03;;;;;;;39.53;27.40;;;9.70;99.90;;;;;;5140695;27;20429;-63
2021/10/14 07:11:40;;;;;;;40.77;27.23;;;9.70;99.90;;;;;;5140660;27;20772;-63
2021/10/14 07:14:07;;;;;;;51.27;28.40;;;9.70;99.90;;;;;;5139999;27;20432;-63
2021/10/14 07:16:34;;;;;;;38.40;27.30;;;9.80;99.90;;;;;;5139886;27;20791;-63
2021/10/14 07:19:03;;;;;;;33.67;25.67;;;9.80;99.90;;;;;;5136161;27;20455;-62
2021/10/14 07:21:32;;;;;;;34.43;24.27;;;9.80;99.90;;;;;;5130360;27;20451;-62
2021/10/14 07:23:59;;;;;;;30.87;22.80;;;9.80;99.90;;;;;;5129684;27;20787;-63
2021/10/14 07:26:26;;;;;;;33.27;24.30;;;9.80;99.90;;;;;;5128055;27;20866;-63
2021/10/14 07:28:53;;;;;;;31.80;23.43;;;9.80;99.90;;;;;;5129088;27;20426;-64
2021/10/14 07:31:25;;;;;;;29.93;21.90;;;9.80;99.90;;;;;;5128515;27;20447;-64
2021/10/14 07:33:54;;;;;;;26.60;21.90;;;9.80;99.90;;;;;;5124471;27;20869;-63
2021/10/14 07:36:21;;;;;;;28.13;23.07;;;9.80;99.90;;;;;;5127635;27;20542;-63
2021/10/14 07:38:49;;;;;;;29.07;21.97;;;9.90;99.90;;;;;;5129493;27;20425;-63
2021/10/14 07:41:16;;;;;;;31.57;22.77;;;9.80;99.90;;;;;;5128715;27;20455;-64
2021/10/14 07:43:43;;;;;;;25.70;20.67;;;9.90;99.90;;;;;;5128191;27;20506;-65
2021/10/14 07:46:10;;;;;;;27.17;19.57;;;9.90;99.90;;;;;;5134209;27;20447;-65
2021/10/14 07:48:37;;;;;;;24.40;19.37;;;10.00;99.90;;;;;;5139150;27;20425;-65
2021/10/14 07:51:05;;;;;;;17.23;14.77;;;10.00;99.90;;;;;;5138119;27;20485;-65
2021/10/14 07:53:32;;;;;;;18.57;16.37;;;10.00;99.90;;;;;;5138716;27;20539;-65
2021/10/14 07:56:00;;;;;;;20.37;16.13;;;10.00;99.90;;;;;;5139115;27;20545;-65
2021/10/14 07:58:29;;;;;;;21.30;15.93;;;10.00;99.90;;;;;;5139156;27;20814;-65
2021/10/14 08:01:01;;;;;;;20.10;17.47;;;10.00;99.90;;;;;;5132411;27;20547;-65
2021/10/14 08:03:33;;;;;;;19.03;16.80;;;10.00;99.90;;;;;;5118778;28;20491;-65
2021/10/14 08:06:00;;;;;;;21.33;19.03;;;10.00;99.90;;;;;;5119674;28;20534;-65
2021/10/14 08:08:30;;;;;;;24.07;19.63;;;10.00;99.90;;;;;;5119141;28;20516;-65
2021/10/14 08:10:57;;;;;;;27.07;20.03;;;10.10;99.90;;;;;;5101327;28;20536;-66
2021/10/14 08:13:27;;;;;;;24.67;19.97;;;10.00;99.90;;;;;;5114028;28;20455;-66
2021/10/14 08:15:55;;;;;;;28.97;22.17;;;10.10;99.90;;;;;;5118812;28;20494;-66
2021/10/14 08:18:23;;;;;;;32.30;23.27;;;10.10;99.90;;;;;;5111584;28;20491;-65
2021/10/14 08:20:53;;;;;;;28.33;23.40;;;10.00;99.90;;;;;;5106202;28;20816;-65
2021/10/14 08:23:21;;;;;;;37.70;23.40;;;10.00;99.90;;;;;;5106888;28;20460;-65
2021/10/14 08:25:48;;;;;;;30.33;23.17;;;10.10;99.90;;;;;;5108803;28;20496;-65
2021/10/14 08:28:18;;;;;;;35.83;24.80;;;10.00;99.90;;;;;;5109793;27;20484;-65
2021/10/14 08:30:50;;;;;;;34.53;26.03;;;10.00;99.90;;;;;;5106758;28;20910;-65
2021/10/14 08:33:20;;;;;;;39.73;26.80;;;10.00;99.90;;;;;;5096717;28;20748;-65
2021/10/14 08:35:52;;;;;;;40.27;28.87;;;10.10;99.90;;;;;;5096870;28;20453;-65
2021/10/14 08:38:19;;;;;;;35.47;26.30;;;10.00;99.90;;;;;;5096710;28;20793;-65
2021/10/14 08:40:48;;;;;;;40.83;27.70;;;10.10;99.90;;;;;;5096721;28;20552;-64
2021/10/14 08:43:18;;;;;;;44.73;28.80;;;10.10;99.90;;;;;;5097825;28;20463;-64
2021/10/14 08:45:51;;;;;;;44.47;28.03;;;10.10;99.90;;;;;;5106379;28;20475;-65
2021/10/14 08:48:17;;;;;;;41.17;28.80;;;10.10;99.90;;;;;;5096503;28;20551;-65
2021/10/14 08:50:47;;;;;;;38.63;27.50;;;10.10;99.90;;;;;;5096797;28;20558;-65
2021/10/14 08:53:15;;;;;;;39.80;27.80;;;10.10;99.90;;;;;;5102125;28;20452;-66
2021/10/14 08:55:42;;;;;;;45.03;28.60;;;10.10;99.90;;;;;;5106925;28;20456;-65
2021/10/14 08:58:10;;;;;;;34.63;24.70;;;10.20;99.90;;;;;;5105561;28;20464;-64
2021/10/14 09:00:42;;;;;;;31.53;24.43;;;10.20;99.90;;;;;;5106806;28;20447;-64
2021/10/14 09:03:25;;;;;;;29.40;21.73;;;10.30;99.90;;;;;;5107385;28;20475;-64
2021/10/14 09:05:55;;;;;;;31.60;21.87;;;10.20;99.90;;;;;;5107964;28;20447;-65
2021/10/14 09:08:34;;;;;;;27.93;22.13;;;10.30;99.90;;;;;;5106579;28;20478;-65
2021/10/14 09:11:05;;;;;;;28.53;20.47;;;10.20;99.90;;;;;;5096747;28;20473;-65
2021/10/14 09:13:35;;;;;;;27.30;19.60;;;10.20;99.90;;;;;;5096680;28;20499;-65
2021/10/14 09:16:23;;;;;;;29.73;19.97;;;10.30;99.90;;;;;;5096463;28;20427;-65
2021/10/14 09:18:53;;;;;;;25.60;20.47;;;10.30;99.90;;;;;;5096560;28;20510;-65
2021/10/14 09:21:25;;;;;;;27.67;20.17;;;10.30;99.90;;;;;;5096283;28;20457;-66
2021/10/14 09:23:59;;;;;;;27.37;22.00;;;10.30;99.90;;;;;;5096466;28;20449;-66
2021/10/14 09:26:31;;;;;;;32.07;24.63;;;10.30;99.90;;;;;;5096277;28;20582;-66
2021/10/14 09:29:11;;;;;;;32.30;23.77;;;10.30;99.90;;;;;;5106067;28;20435;-66
2021/10/14 09:31:48;;;;;;;36.90;28.50;;;10.40;99.90;;;;;;5096344;28;20886;-66
2021/10/14 09:34:30;;;;;;;43.80;29.93;;;10.40;99.90;;;;;;5105102;28;20516;-66
2021/10/14 09:36:58;;;;;;;38.17;29.30;;;10.40;99.90;;;;;;5105838;28;20578;-67
2021/10/14 09:39:28;;;;;;;44.47;30.63;;;10.30;99.90;;;;;;5105852;28;20455;-66
2021/10/14 09:41:58;;;;;;;48.50;33.60;;;10.40;99.90;;;;;;5105800;28;20510;-65
2021/10/14 09:44:26;;;;;;;46.77;31.10;;;10.40;99.90;;;;;;5106738;28;20551;-66
2021/10/14 09:46:55;;;;;;;45.13;30.10;;;10.50;99.90;;;;;;5105268;28;20444;-66
2021/10/14 09:49:29;;;;;;;43.27;31.53;;;10.50;99.90;;;;;;5101274;28;20460;-66
2021/10/14 09:51:57;;;;;;;40.27;31.77;;;10.50;99.90;;;;;;5102903;28;20543;-66
2021/10/14 09:54:25;;;;;;;44.97;31.57;;;10.50;99.90;;;;;;5096835;28;20435;-65
2021/10/14 09:56:52;;;;;;;46.23;30.33;;;10.60;99.90;;;;;;5096961;28;21020;-65
2021/10/14 09:59:18;;;;;;;45.13;31.60;;;10.60;99.90;;;;;;5096886;28;20775;-65
2021/10/14 10:01:48;;;;;;;40.03;27.97;;;10.60;99.90;;;;;;5110779;28;20456;-65
2021/10/14 10:04:15;;;;;;;39.03;26.27;;;10.60;99.90;;;;;;5117514;28;20514;-64
2021/10/14 10:06:47;;;;;;;38.07;28.67;;;10.60;99.90;;;;;;5117501;28;20427;-64
2021/10/14 10:09:16;;;;;;;38.10;26.83;;;10.50;99.90;;;;;;5117669;28;20460;-64
2021/10/14 10:11:47;;;;;;;33.53;25.97;;;10.60;99.90;;;;;;5117593;28;20803;-64
2021/10/14 10:14:17;;;;;;;41.73;28.70;;;10.60;99.90;;;;;;5117248;28;20967;-64
2021/10/14 10:16:58;;;;;;;38.33;26.97;;;10.60;99.90;;;;;;5116808;28;20499;-64
2021/10/14 10:19:57;;;;;;;32.07;26.80;;;10.60;99.90;;;;;;5122001;28;20454;-65
2021/10/14 10:22:58;;;;;;;40.03;27.80;;;10.70;99.90;;;;;;5034529;28;20456;-65
2021/10/14 10:25:39;;;;;;;34.80;26.87;;;10.80;99.90;;;;;;5138227;28;20532;-65
2021/10/14 10:28:26;;;;;;;39.07;30.07;;;10.80;99.90;;;;;;5123558;28;20451;-65
2021/10/14 10:30:54;;;;;;;40.57;30.10;;;10.80;99.90;;;;;;5116065;28;20452;-65
2021/10/14 10:33:53;;;;;;;43.30;29.47;;;10.80;99.90;;;;;;5116445;28;20466;-65
2021/10/14 10:36:46;;;;;;;39.70;30.37;;;10.80;99.90;;;;;;5116655;28;20906;-65
2021/10/14 10:39:43;;;;;;;44.00;32.37;;;10.80;99.90;;;;;;5117663;28;20491;-65
2021/10/14 10:42:23;;;;;;;42.60;31.40;;;11.00;99.90;;;;;;5116377;28;20524;-65
2021/10/14 10:44:53;;;;;;;44.50;31.47;;;11.10;99.90;;;;;;5116870;28;20769;-64
2021/10/14 10:47:58;;;;;;;44.60;32.03;;;11.10;99.90;;;;;;5117408;28;20562;-64
2021/10/14 10:50:42;;;;;;;42.60;31.00;;;11.20;99.90;;;;;;5034014;28;20474;-64
2021/10/14 10:53:12;;;;;;;38.90;30.37;;;11.10;99.90;;;;;;5038004;28;20509;-64
2021/10/14 10:55:47;;;;;;;43.37;30.93;;;11.10;99.90;;;;;;5089657;28;20459;-64
2021/10/14 10:58:38;;;;;;;41.43;31.27;;;11.10;99.90;;;;;;5119761;28;20491;-64
2021/10/14 11:01:08;;;;;;;41.93;31.53;;;11.10;99.90;;;;;;5112327;28;20456;-64
2021/10/14 11:03:35;;;;;;;41.30;29.67;;;11.10;99.90;;;;;;5100104;28;20492;-64
2021/10/14 11:06:08;;;;;;;39.27;30.80;;;11.10;99.90;;;;;;5100632;28;20559;-65
2021/10/14 11:08:37;;;;;;;38.13;30.17;;;11.20;99.90;;;;;;5100404;28;20553;-65
2021/10/14 11:11:07;;;;;;;38.43;30.27;;;11.20;99.90;;;;;;5100096;28;20887;-65
2021/10/14 11:13:38;;;;;;;41.67;29.60;;;11.30;99.90;;;;;;5100447;28;20801;-65
2021/10/14 11:16:07;;;;;;;36.27;28.00;;;11.30;99.90;;;;;;5099885;28;20944;-65
2021/10/14 11:18:40;;;;;;;42.60;28.83;;;11.40;99.90;;;;;;5100999;28;21021;-65
2021/10/14 11:21:17;;;;;;;39.40;29.17;;;11.40;99.90;;;;;;5107962;28;20471;-65
2021/10/14 11:23:46;;;;;;;38.17;29.60;;;11.50;99.90;;;;;;5114528;28;20962;-65
2021/10/14 11:26:17;;;;;;;41.07;31.00;;;11.40;99.90;;;;;;5121070;27;20541;-65
2021/10/14 11:29:00;;;;;;;38.37;28.07;;;11.50;99.90;;;;;;5129275;27;20573;-65
2021/10/14 11:31:35;;;;;;;37.80;29.17;;;11.60;99.90;;;;;;5136167;27;20517;-65
2021/10/14 11:34:14;;;;;;;46.77;29.30;;;11.70;99.90;;;;;;5140234;27;20429;-65
2021/10/14 11:36:49;;;;;;;36.90;27.37;;;11.80;99.90;;;;;;5138450;27;20459;-65
2021/10/14 11:39:17;;;;;;;42.07;28.90;;;11.80;99.90;;;;;;5140795;27;20960;-65
2021/10/14 11:41:45;;;;;;;37.40;27.23;;;11.90;99.90;;;;;;5135512;27;20459;-66
2021/10/14 11:44:12;;;;;;;35.77;27.17;;;12.00;99.90;;;;;;5119781;28;20892;-66
2021/10/14 11:46:41;;;;;;;35.50;27.30;;;12.10;99.90;;;;;;5119671;28;20898;-66
2021/10/14 11:49:12;;;;;;;35.83;25.77;;;12.20;99.90;;;;;;5118681;28;20497;-66
2021/10/14 11:51:40;;;;;;;29.70;24.90;;;12.40;99.90;;;;;;5119863;28;20853;-66
2021/10/14 11:54:14;;;;;;;31.03;25.60;;;12.50;99.90;;;;;;5119710;28;20459;-65
2021/10/14 11:56:43;;;;;;;32.83;21.87;;;12.50;99.90;;;;;;5119159;28;20487;-66
2021/10/14 11:59:13;;;;;;;33.80;23.10;;;12.50;99.90;;;;;;5119771;28;20467;-65
2021/10/14 12:01:51;;;;;;;26.70;23.77;;;12.60;99.90;;;;;;5119639;28;20540;-65
2021/10/14 12:04:23;;;;;;;26.03;22.33;;;12.60;99.90;;;;;;5118038;28;20545;-65
2021/10/14 12:06:53;;;;;;;25.60;22.67;;;12.60;99.90;;;;;;5119372;28;20533;-65
2021/10/14 12:09:24;;;;;;;27.80;22.30;;;12.60;99.90;;;;;;5119378;28;20467;-65
2021/10/14 12:12:00;;;;;;;29.73;22.80;;;12.70;99.90;;;;;;5118075;28;20478;-65
2021/10/14 12:14:30;;;;;;;32.20;23.43;;;12.80;99.90;;;;;;5117994;28;20517;-65
2021/10/14 12:17:08;;;;;;;28.73;21.80;;;12.80;99.90;;;;;;5118920;28;20765;-65
2021/10/14 12:19:39;;;;;;;24.30;20.93;;;12.70;99.90;;;;;;5119253;28;20470;-65
2021/10/14 12:22:07;;;;;;;29.80;21.10;;;12.60;99.90;;;;;;5118852;28;20463;-65
2021/10/14 12:24:54;;;;;;;26.00;21.67;;;12.60;99.90;;;;;;5119119;28;20731;-65
2021/10/14 12:27:30;;;;;;;29.00;22.63;;;12.70;99.90;;;;;;5125939;27;20461;-64
2021/10/14 12:30:01;;;;;;;28.67;22.30;;;12.70;99.90;;;;;;5140112;27;20458;-64
2021/10/14 12:32:28;;;;;;;29.20;20.00;;;12.70;99.90;;;;;;5139361;27;20730;-64
2021/10/14 12:35:01;;;;;;;26.30;20.20;;;12.70;99.90;;;;;;5139068;27;20459;-64
2021/10/14 12:37:30;;;;;;;25.07;19.77;;;12.80;99.90;;;;;;5139433;27;20786;-65
2021/10/14 12:40:26;;;;;;;30.00;21.00;;;12.70;99.90;;;;;;5139731;27;20490;-64
2021/10/14 12:43:00;;;;;;;31.50;19.30;;;12.80;99.90;;;;;;5080596;27;20569;-65
2021/10/14 12:45:55;;;;;;;28.03;21.40;;;12.70;99.90;;;;;;5139325;27;20472;-65
2021/10/14 12:48:37;;;;;;;27.17;19.33;;;12.80;99.90;;;;;;5132292;27;20456;-65